Report: Comparison tables
[csit.git] / docs / report / index.html.template
3 days ago Tibor FrankReport: Comparison tables 45/36545/3 master
6 days ago Tibor FrankReport: Add normalized comp tabels - static content 09/36509/2
2022-05-25 Tibor FrankReport: Configure report rls2206 09/36209/1
2022-01-25 Tibor FrankReport: Add Comparison tables 70/35070/1
2021-11-11 Tibor FrankReport: Add DPDK speedup graphs 60/34460/2
2021-11-03 Tibor FrankReport: Add rls data 22/34322/4
2021-10-25 Tibor FrankReport: Add data 38/34238/1
2021-10-18 Tibor FrankReport: Move CSIT Documentation to Introduction 24/34124/1
2021-10-12 Tibor FrankReport: Fix bugs and typos in static content 51/34051/1
2021-10-08 Tibor FrankReport: Add TRex tests 02/34002/4
2021-09-29 Tibor FrankReport: configure rls2110 81/33881/5
2021-08-18 Tibor FrankReport: Add tables with builds durations 54/33454/13
2021-06-14 Tibor FrankReport: Add RC1 data 16/32716/1
2021-06-02 Tibor FrankReport: Configure report 98/32498/12
2021-02-22 Tibor FrankReport: Add gso tests 71/31371/22
2021-01-22 Tibor FrankReport: Add data 83/30883/2
2021-01-19 Tibor FrankReport: Add data, 2n-tx2 latency graphs 14/30814/3
2021-01-18 Tibor FrankReport: Add data, add 2n-tx2 98/30798/3
2021-01-11 Tibor FrankReport: Configure report 09/30609/8
2020-09-10 Tibor FrankReport: Configure rls2009 Report 38/28738/1
2020-07-14 Tibor FrankReport 2005: Add soak tests 81/27881/1
2020-07-14 Tibor FrankReport 2005: Add NFV tests 73/27873/6
2020-07-13 Tibor FrankReport 2005: Add reconf tests 70/27870/2
2020-07-08 Tibor FrankReport 2005: Add data, hide dnv, soak, reconf, nfv 14/27814/2
2020-05-27 Tibor FrankReport: configure report rls2005 72/27272/3
2020-03-04 Tibor FrankReport: Add Soak tests 12/25612/10
2020-03-03 Tibor FrankPAL: Process Hoststack data 40/25340/27
2020-03-03 Tibor FrankReport: Add reconf tests for 2n-clx 96/25596/3
2020-02-20 Tibor FrankReport: Add 2n-clx 79/25279/2
2020-02-14 Tibor FrankReport: Remove NFV 43/25143/2
2020-02-12 Tibor FrankReport: Add HDRH Lat for DPDK, part 3 01/25001/1
2020-02-12 Tibor FrankReport: Add HDRH Lat for DPDK, part 2 95/24995/2
2020-02-12 Tibor FrankReport: Add HDRH Latency to the static content 79/24979/2
2020-02-11 Tibor FrankReport: Hide skx and clx testbeds 60/24960/3
2020-02-11 Tibor FrankReport: Remove not needed Latencies 50/24950/1
2020-02-10 Tibor FrankPAL: Latency by percentile 64/24864/15
2020-02-07 Tibor FrankReport: Placeholder for LD preload tests 52/24652/7
2020-02-03 Tibor FrankReport: Add DPDK 2n-clx 41/24741/1
2020-01-15 Tibor FrankReport: Add Latency by Percentile Distribution 44/24344/10
2020-01-09 Tibor FrankReport: Configure Report 2001 61/24261/3
2020-01-09 Tibor FrankDMM: Remove 20/23420/11
2020-01-07 Tibor FrankRemove VIRL Func tests from Report 19/24219/1
2019-12-04 Tibor FrankPAL: Add HDRHistogram graphs for latency 10/22210/78
2019-11-28 Jan GeletyPython3: resources and libraries 78/23478/78
2019-11-21 Tibor FrankNSH_SFC: Remove 21/23421/2
2019-11-19 Peter MikusHONEYCOMB: Remove 63/23363/4
2019-11-13 Peter MikusLIGATO: Remove 04/23404/2
2019-09-18 Tibor FrankReport: Add disclaimer for reconf tests 12/22112/6
2019-09-09 Tibor FrankReport: Add soak tests 99/21899/1
2019-09-02 Tibor FrankReport: Add 3n-tsh 57/21657/1
2019-08-26 Tibor FrankReport: NFV 22/21522/1
2019-08-09 Tibor FrankReport: Configuration 72/21172/1
2019-05-13 Tibor FrankReport: Add SOAK Tests 30/19530/1
2019-05-10 Tibor FrankReport: Hide DMM 09/19509/2
2019-05-09 Tibor FrankReport: hide soak tests 66/19466/1
2019-05-09 Tibor FrankReport: Remove Ligato 53/19453/2
2019-04-18 Tibor FrankReport: Static content 35/19035/1
2019-04-18 Tibor FrankCSIT-1487: Configure PAL for the Report 1904 72/18972/3
2019-03-19 Tibor FrankReport: Remove VNF 82/18382/4
2019-03-11 Tibor FrankCSIT-1456: Report 1901.1 Configuration 73/18173/4
2019-02-19 Tibor FrankReport: Add data 70/17670/5
2019-02-14 Tibor FrankReport: Add data 02/17602/4
2019-02-12 Tibor FrankReport: Remove NSH, DNV, TCP 13/17513/2
2019-02-12 Tibor FrankReport: Add hover info to graph's descriptions 04/17504/2
2019-02-11 Tibor FrankReport: Remove index 66/17466/3
2019-02-04 Tibor FrankCSIT-1397: Create Heatmap graphs 49/17049/78
2019-01-21 Tibor FrankCSIT-1406: Configure PAL to generate 1901 Report 23/16923/2
2018-11-27 Tibor FrankReport: Report Revisions 22/16222/4
2018-11-27 Tibor FrankReport: versioning 87/16187/6
2018-11-12 Tibor FrankCSIT-1350: Add new data to 1810 report 36/15836/4
2018-11-07 Tibor FrankTemporarily remove Ligato tests 69/15769/2
2018-11-05 Peter MikusStatic content for vpp_device sections 87/15687/2
2018-11-01 Tibor FrankCSIT-1349: Add VPP-device tests to report 62/15662/4
2018-10-31 Tibor FrankReport-1810: Configuration 34/15634/1
2018-10-31 Tibor FrankCSIT-1332: Proposal of new layout of all graphs 55/15155/205
2018-09-05 Tibor FrankAdd Report history 74/14674/1
2018-08-17 Maciek Konstantynowiczreport 18.07: moved performance change/compare sections... 13/14313/8
2018-08-16 Maciek Konstantynowiczreport 1807: fixed index.html for introduction section. 76/14276/1
2018-08-09 Tibor FrankCSIT-1229: Add DMM to report 15/14015/10
2018-08-07 Tibor FrankCSIT-1226: Fix bugs in pdf version 40/13940/10